Time;durP1;ratioP1;P1;durP2;ratioP2;P2;SDS_P1;SDS_P2;PMS_P1;PMS_P2;Temp;Humidity;BMP_temperature;BMP_pressure;BME280_temperature;BME280_humidity;BME280_pressure;Samples;Min_cycle;Max_cycle;Signal;HPM_P1;HPM_P2
2021/04/17 00:01:18;;;;;;;0.30;0.30;;;2.50;99.90;;;;;;4971080;28;20187;-70
2021/04/17 00:03:44;;;;;;;0.20;0.20;;;2.40;99.90;;;;;;4970677;28;20163;-72
2021/04/17 00:06:11;;;;;;;0.10;0.10;;;2.30;99.90;;;;;;4969391;29;20246;-72
2021/04/17 00:08:37;;;;;;;0.10;0.10;;;2.30;99.90;;;;;;4970446;28;20304;-72
2021/04/17 00:11:04;;;;;;;0.28;0.28;;;2.30;99.90;;;;;;4970111;28;20187;-70
2021/04/17 00:13:30;;;;;;;0.57;0.57;;;2.40;99.90;;;;;;4970469;28;20579;-70
2021/04/17 00:15:57;;;;;;;0.10;0.10;;;2.30;99.90;;;;;;4970550;28;20592;-70
2021/04/17 00:18:23;;;;;;;0.10;0.10;;;2.40;99.90;;;;;;4970471;28;20255;-70
2021/04/17 00:20:49;;;;;;;0.40;0.40;;;2.40;99.90;;;;;;4970343;28;20330;-72
2021/04/17 00:23:16;;;;;;;0.10;0.10;;;2.50;99.90;;;;;;4970151;28;20156;-71
2021/04/17 00:25:42;;;;;;;0.10;0.10;;;2.50;99.90;;;;;;4970112;28;20164;-70
2021/04/17 00:28:09;;;;;;;0.10;0.10;;;2.50;99.90;;;;;;4970098;28;20192;-71
2021/04/17 00:30:35;;;;;;;0.13;0.13;;;2.50;99.90;;;;;;4970324;28;20191;-71
2021/04/17 00:33:01;;;;;;;0.25;0.25;;;2.60;99.90;;;;;;4970627;28;20157;-71
2021/04/17 00:35:27;;;;;;;0.20;0.20;;;2.60;99.90;;;;;;4970143;28;20153;-71
2021/04/17 00:37:53;;;;;;;0.32;0.32;;;2.70;99.90;;;;;;4970279;28;20161;-71
2021/04/17 00:40:19;;;;;;;0.10;0.10;;;2.70;99.90;;;;;;4968911;28;20194;-71
2021/04/17 00:42:45;;;;;;;0.10;0.10;;;2.70;99.90;;;;;;4968974;28;20179;-71
2021/04/17 00:45:12;;;;;;;0.38;0.38;;;2.70;99.90;;;;;;4970217;28;20159;-71
2021/04/17 00:47:40;;;;;;;0.10;0.10;;;2.70;99.90;;;;;;4969983;28;20259;-71
2021/04/17 00:50:07;;;;;;;0.10;0.10;;;2.70;99.90;;;;;;4970104;28;20191;-71
2021/04/17 00:52:33;;;;;;;0.10;0.10;;;2.70;99.90;;;;;;4970124;28;20160;-71
2021/04/17 00:55:03;;;;;;;0.10;0.10;;;2.80;99.90;;;;;;4970144;28;20167;-71
2021/04/17 00:57:29;;;;;;;0.30;0.30;;;2.90;99.90;;;;;;4968569;28;20187;-71
2021/04/17 00:59:55;;;;;;;0.10;0.10;;;2.80;99.90;;;;;;4969825;28;20251;-72
2021/04/17 01:02:27;;;;;;;0.10;0.10;;;2.90;99.90;;;;;;4969870;28;20164;-71
2021/04/17 01:04:54;;;;;;;0.20;0.20;;;3.00;99.90;;;;;;4969872;28;20157;-71
2021/04/17 01:07:44;;;;;;;0.10;0.10;;;3.00;99.90;;;;;;4969896;28;20164;-70
2021/04/17 01:10:24;;;;;;;0.13;0.13;;;3.10;99.90;;;;;;4969703;28;20226;-71
2021/04/17 01:12:55;;;;;;;0.20;0.20;;;3.20;99.90;;;;;;4969567;28;20184;-71
2021/04/17 01:15:24;;;;;;;0.10;0.10;;;3.30;99.90;;;;;;4969598;28;20160;-71
2021/04/17 01:17:52;;;;;;;0.30;0.30;;;3.30;99.90;;;;;;4968262;28;20172;-71
2021/04/17 01:20:33;;;;;;;0.35;0.35;;;3.40;99.90;;;;;;4969389;28;20238;-71
2021/04/17 01:23:05;;;;;;;0.17;0.17;;;3.40;99.90;;;;;;4969186;28;20184;-71
2021/04/17 01:26:00;;;;;;;0.10;0.10;;;3.50;99.90;;;;;;4969478;28;20160;-71
2021/04/17 01:28:33;;;;;;;0.52;0.52;;;3.50;99.90;;;;;;4968158;28;20211;-71
2021/04/17 01:31:01;;;;;;;0.10;0.10;;;3.50;99.90;;;;;;4968093;29;20204;-71
2021/04/17 01:33:33;;;;;;;0.10;0.10;;;3.50;99.90;;;;;;4969496;28;20571;-71
2021/04/17 01:36:01;;;;;;;0.15;0.15;;;3.50;99.90;;;;;;4969385;28;20172;-71
2021/04/17 01:38:41;;;;;;;0.22;0.22;;;3.60;99.90;;;;;;4969396;28;20195;-71
2021/04/17 01:41:19;;;;;;;0.10;0.10;;;3.60;99.90;;;;;;4968122;28;20206;-71
2021/04/17 01:43:50;;;;;;;0.40;0.40;;;3.60;99.90;;;;;;4969600;28;20164;-71
2021/04/17 01:46:21;;;;;;;0.20;0.20;;;3.60;99.90;;;;;;4969379;28;20160;-71
2021/04/17 01:48:51;;;;;;;0.10;0.10;;;3.60;99.90;;;;;;4972001;28;20198;-71
2021/04/17 01:51:18;;;;;;;0.10;0.10;;;3.70;99.90;;;;;;4973113;28;20188;-71
2021/04/17 01:53:47;;;;;;;0.20;0.20;;;3.60;99.90;;;;;;4973236;28;20566;-71
2021/04/17 01:56:17;;;;;;;0.80;0.80;;;3.60;99.90;;;;;;4971773;28;20172;-71
2021/04/17 01:58:44;;;;;;;0.10;0.10;;;3.70;99.90;;;;;;4972890;28;20192;-69
2021/04/17 02:01:10;;;;;;;0.10;0.10;;;3.70;99.90;;;;;;4972924;28;20160;-71
2021/04/17 02:03:36;;;;;;;0.10;0.10;;;3.70;99.90;;;;;;4972980;28;20164;-70
2021/04/17 02:06:03;;;;;;;0.10;0.10;;;3.70;99.90;;;;;;4972938;28;20192;-70
2021/04/17 02:08:32;;;;;;;0.10;0.10;;;3.70;99.90;;;;;;4972836;28;20220;-71
2021/04/17 02:10:58;;;;;;;0.10;0.10;;;3.70;99.90;;;;;;4972979;29;20187;-70
2021/04/17 02:13:24;;;;;;;0.10;0.10;;;3.70;99.90;;;;;;4973024;28;20164;-72
2021/04/17 02:15:50;;;;;;;0.93;0.93;;;3.70;99.90;;;;;;4973052;28;20164;-71
2021/04/17 02:18:27;;;;;;;0.15;0.15;;;3.70;99.90;;;;;;4972803;28;20267;-70
2021/04/17 02:21:15;;;;;;;0.10;0.10;;;3.70;99.90;;;;;;4972877;28;20230;-70
2021/04/17 02:23:42;;;;;;;0.10;0.10;;;3.70;99.90;;;;;;4971593;28;20187;-70
2021/04/17 02:26:09;;;;;;;0.10;0.10;;;3.70;99.90;;;;;;4971508;28;20184;-70
2021/04/17 02:28:34;;;;;;;0.77;0.75;;;3.70;99.90;;;;;;4978513;28;20279;-72
2021/04/17 02:31:04;;;;;;;0.75;0.75;;;3.70;99.90;;;;;;4991600;28;20187;-70
2021/04/17 02:33:30;;;;;;;0.10;0.10;;;3.60;99.90;;;;;;4991865;28;20159;-72
2021/04/17 02:35:56;;;;;;;0.77;0.77;;;3.60;99.90;;;;;;4974434;28;20179;-72
2021/04/17 02:38:23;;;;;;;0.10;0.10;;;3.60;99.90;;;;;;4990371;28;20222;-72
2021/04/17 02:40:49;;;;;;;0.43;0.43;;;3.60;99.90;;;;;;4990386;28;20159;-72
2021/04/17 02:43:15;;;;;;;0.70;0.70;;;3.60;99.90;;;;;;4991798;28;20160;-70
2021/04/17 02:45:41;;;;;;;0.13;0.13;;;3.60;99.90;;;;;;4990511;28;20183;-72
2021/04/17 02:48:07;;;;;;;0.17;0.17;;;3.60;99.90;;;;;;4991559;28;20255;-70
2021/04/17 02:50:33;;;;;;;0.10;0.10;;;3.50;99.90;;;;;;4991640;28;20203;-72
2021/04/17 02:52:59;;;;;;;0.10;0.10;;;3.60;99.90;;;;;;4991479;28;20160;-72
2021/04/17 02:55:25;;;;;;;0.10;0.10;;;3.60;99.90;;;;;;4991516;28;20190;-72
2021/04/17 02:57:51;;;;;;;0.20;0.20;;;3.60;99.90;;;;;;4991428;28;20163;-72
2021/04/17 03:00:22;;;;;;;0.75;0.40;;;3.50;99.90;;;;;;4989712;28;20186;-71
2021/04/17 03:02:52;;;;;;;0.70;0.70;;;3.50;99.90;;;;;;4991408;28;20162;-72
2021/04/17 03:05:19;;;;;;;0.10;0.10;;;3.50;99.90;;;;;;4991187;28;20160;-70
2021/04/17 03:07:45;;;;;;;0.10;0.10;;;3.50;99.90;;;;;;4989890;28;20179;-71
2021/04/17 03:10:12;;;;;;;0.10;0.10;;;3.50;99.90;;;;;;4991207;28;20199;-70
2021/04/17 03:12:39;;;;;;;0.40;0.40;;;3.60;99.90;;;;;;4991425;28;20155;-72
2021/04/17 03:15:06;;;;;;;0.25;0.25;;;3.60;99.90;;;;;;4991175;28;20176;-72
2021/04/17 03:17:33;;;;;;;0.57;0.57;;;3.60;99.90;;;;;;4990964;28;20175;-71
2021/04/17 03:20:00;;;;;;;0.10;0.10;;;3.70;99.90;;;;;;4990777;28;20801;-71
2021/04/17 03:22:26;;;;;;;0.10;0.10;;;3.80;99.90;;;;;;4989636;28;20186;-71
2021/04/17 03:24:53;;;;;;;0.13;0.13;;;3.90;99.90;;;;;;4990726;28;20171;-72
2021/04/17 03:27:20;;;;;;;0.40;0.40;;;3.90;99.90;;;;;;4990890;28;20198;-71
2021/04/17 03:29:46;;;;;;;0.10;0.10;;;3.90;99.90;;;;;;4990705;28;20219;-71
2021/04/17 03:32:11;;;;;;;0.10;0.10;;;3.90;99.90;;;;;;4990559;28;20202;-70
2021/04/17 03:34:37;;;;;;;0.43;0.43;;;3.90;99.90;;;;;;4990697;28;20650;-70
2021/04/17 03:37:03;;;;;;;0.28;0.28;;;3.80;99.90;;;;;;4989330;28;20206;-71
2021/04/17 03:39:29;;;;;;;0.25;0.25;;;3.80;99.90;;;;;;4990451;28;20214;-70
2021/04/17 03:41:55;;;;;;;0.10;0.10;;;3.90;99.90;;;;;;4990467;28;20164;-71
2021/04/17 03:44:21;;;;;;;0.43;0.43;;;4.00;99.90;;;;;;4990485;28;20490;-71
2021/04/17 03:46:47;;;;;;;0.25;0.25;;;3.90;99.90;;;;;;4990360;28;20163;-70
2021/04/17 03:49:13;;;;;;;1.50;1.33;;;3.90;99.90;;;;;;4988593;28;20257;-70
2021/04/17 03:51:39;;;;;;;0.20;0.20;;;3.90;99.90;;;;;;4990216;28;20247;-72
2021/04/17 03:54:05;;;;;;;0.20;0.20;;;3.80;99.90;;;;;;4990282;28;20164;-71
2021/04/17 03:56:32;;;;;;;0.10;0.10;;;3.90;99.90;;;;;;4988775;28;20282;-71
2021/04/17 03:58:58;;;;;;;0.13;0.13;;;3.90;99.90;;;;;;4990152;28;20195;-70
2021/04/17 04:01:24;;;;;;;0.47;0.47;;;3.80;99.90;;;;;;4989946;28;20226;-72
2021/04/17 04:03:50;;;;;;;0.47;0.45;;;3.80;99.90;;;;;;4990038;28;20186;-71
2021/04/17 04:06:18;;;;;;;0.98;0.90;;;3.80;99.90;;;;;;4990063;28;20167;-69
2021/04/17 04:08:45;;;;;;;0.22;0.22;;;3.80;99.90;;;;;;4989834;28;20202;-70
2021/04/17 04:11:10;;;;;;;0.50;0.50;;;3.90;99.90;;;;;;4988087;28;20229;-71
2021/04/17 04:13:36;;;;;;;0.10;0.10;;;3.80;99.90;;;;;;4989803;28;20160;-70
2021/04/17 04:16:02;;;;;;;0.70;0.70;;;3.70;99.90;;;;;;4989795;28;20170;-70
2021/04/17 04:18:28;;;;;;;0.52;0.52;;;3.80;99.90;;;;;;4989589;28;20195;-72
2021/04/17 04:20:54;;;;;;;0.10;0.10;;;3.80;99.90;;;;;;4989550;28;20302;-71
2021/04/17 04:23:20;;;;;;;0.47;0.47;;;3.80;99.90;;;;;;4989859;28;20171;-71
2021/04/17 04:25:46;;;;;;;0.10;0.10;;;3.70;99.90;;;;;;4989562;28;20159;-70
2021/04/17 04:28:12;;;;;;;0.73;0.73;;;3.60;99.90;;;;;;4989581;28;20202;-69
2021/04/17 04:30:38;;;;;;;0.60;0.60;;;3.60;99.90;;;;;;4989450;28;20193;-70
2021/04/17 04:33:04;;;;;;;0.20;0.20;;;3.60;99.90;;;;;;4989445;28;20183;-70
2021/04/17 04:35:30;;;;;;;0.15;0.15;;;3.70;99.90;;;;;;4989437;28;20171;-72
2021/04/17 04:37:56;;;;;;;0.20;0.20;;;3.80;99.90;;;;;;4989334;28;20171;-71
2021/04/17 04:40:22;;;;;;;0.35;0.35;;;3.90;99.90;;;;;;4989579;28;20202;-71
2021/04/17 04:42:47;;;;;;;0.20;0.20;;;4.00;99.90;;;;;;4989478;28;20167;-69
2021/04/17 04:45:13;;;;;;;0.77;0.77;;;4.00;99.90;;;;;;4989452;28;20419;-71
2021/04/17 04:47:39;;;;;;;0.20;0.20;;;4.10;99.90;;;;;;4988115;28;20182;-70
2021/04/17 04:50:08;;;;;;;0.10;0.10;;;4.10;99.90;;;;;;4987797;28;20199;-71
2021/04/17 04:52:34;;;;;;;0.52;0.50;;;4.20;99.90;;;;;;4989349;28;20163;-70
2021/04/17 04:55:00;;;;;;;0.25;0.25;;;4.20;99.90;;;;;;4988022;28;20179;-70
2021/04/17 04:57:27;;;;;;;4.80;1.05;;;4.20;99.90;;;;;;4989133;28;20163;-70
2021/04/17 04:59:53;;;;;;;0.10;0.10;;;4.30;99.90;;;;;;4989209;28;20199;-70
2021/04/17 05:02:19;;;;;;;0.45;0.45;;;4.30;99.90;;;;;;4989265;28;20159;-71
2021/04/17 05:04:45;;;;;;;0.20;0.20;;;4.30;99.90;;;;;;4989132;28;20247;-71
2021/04/17 05:07:12;;;;;;;0.10;0.10;;;4.30;99.90;;;;;;4989082;28;20156;-70
2021/04/17 05:09:38;;;;;;;0.13;0.13;;;4.40;99.90;;;;;;4989158;28;20218;-70
2021/04/17 05:12:05;;;;;;;1.33;0.88;;;4.30;99.90;;;;;;4989066;28;20269;-70
2021/04/17 05:14:31;;;;;;;2.95;0.98;;;4.40;99.90;;;;;;4989128;28;20163;-70
2021/04/17 05:16:57;;;;;;;0.10;0.10;;;4.40;99.90;;;;;;4989091;28;20166;-70
2021/04/17 05:19:24;;;;;;;0.00;0.00;;;4.60;99.90;;;;;;4988895;28;20223;-70
2021/04/17 05:21:51;;;;;;;0.10;0.10;;;4.70;99.90;;;;;;4988929;28;20180;-71
2021/04/17 05:24:17;;;;;;;0.45;0.43;;;4.70;99.90;;;;;;4992908;28;20163;-70
2021/04/17 05:26:43;;;;;;;4.38;1.55;;;4.70;99.90;;;;;;4993268;28;20167;-72
2021/04/17 05:29:09;;;;;;;0.20;0.20;;;4.80;99.90;;;;;;4993025;28;20206;-71
2021/04/17 05:31:35;;;;;;;0.75;0.75;;;5.00;99.90;;;;;;4992907;28;20611;-69
2021/04/17 05:34:05;;;;;;;0.50;0.50;;;5.00;99.90;;;;;;4993095;28;20160;-69
2021/04/17 05:36:32;;;;;;;0.25;0.25;;;4.90;99.90;;;;;;4992776;28;20160;-71
2021/04/17 05:38:58;;;;;;;0.10;0.10;;;4.90;99.90;;;;;;4991467;28;20222;-70
2021/04/17 05:41:27;;;;;;;2.97;0.32;;;4.90;99.90;;;;;;4992843;28;20179;-70
2021/04/17 05:43:53;;;;;;;0.20;0.20;;;5.00;99.90;;;;;;4992582;28;20159;-70
2021/04/17 05:46:19;;;;;;;0.52;0.52;;;5.20;99.90;;;;;;4992801;28;20168;-71
2021/04/17 05:48:45;;;;;;;0.17;0.15;;;5.20;99.90;;;;;;4992632;28;20265;-72
2021/04/17 05:51:11;;;;;;;0.10;0.10;;;5.20;99.90;;;;;;4992646;28;20195;-72
2021/04/17 05:53:37;;;;;;;0.20;0.20;;;5.10;99.90;;;;;;4991193;28;20210;-70
2021/04/17 05:56:03;;;;;;;1.15;1.13;;;5.10;99.90;;;;;;4992614;28;20160;-71
2021/04/17 05:58:29;;;;;;;0.25;0.25;;;5.30;99.90;;;;;;4991071;28;20250;-71
2021/04/17 06:00:55;;;;;;;0.63;0.63;;;5.50;99.90;;;;;;4992484;28;20623;-70
2021/04/17 06:03:21;;;;;;;0.10;0.10;;;5.60;99.90;;;;;;4992414;28;20168;-72
2021/04/17 06:05:47;;;;;;;0.08;0.08;;;5.70;99.90;;;;;;4991099;28;20209;-71
2021/04/17 06:08:13;;;;;;;0.45;0.45;;;5.70;99.90;;;;;;4992065;28;20199;-70
2021/04/17 06:10:39;;;;;;;0.10;0.10;;;5.70;99.90;;;;;;4992240;28;20190;-69
2021/04/17 06:13:05;;;;;;;0.10;0.10;;;5.90;99.90;;;;;;4990642;28;20202;-72
2021/04/17 06:15:31;;;;;;;0.55;0.55;;;6.20;99.90;;;;;;4992277;28;20167;-72
2021/04/17 06:17:57;;;;;;;0.10;0.10;;;6.30;99.90;;;;;;4992022;28;20190;-71
2021/04/17 06:20:23;;;;;;;0.30;0.30;;;6.20;99.90;;;;;;4990578;28;20231;-73
2021/04/17 06:22:49;;;;;;;0.20;0.20;;;6.20;99.90;;;;;;4990680;28;20635;-72
2021/04/17 06:25:15;;;;;;;1.00;1.00;;;6.20;99.90;;;;;;4991040;28;20270;-72
2021/04/17 06:27:41;;;;;;;0.90;0.50;;;6.30;99.90;;;;;;4991728;28;20665;-71
2021/04/17 06:30:08;;;;;;;1.27;1.17;;;6.40;99.90;;;;;;4991707;28;20196;-70
2021/04/17 06:32:33;;;;;;;0.35;0.35;;;6.20;99.90;;;;;;4991911;28;20164;-70
2021/04/17 06:34:59;;;;;;;0.40;0.40;;;6.40;99.90;;;;;;4991660;28;20632;-71
2021/04/17 06:37:25;;;;;;;0.20;0.20;;;6.50;99.90;;;;;;4992097;28;20164;-71
2021/04/17 06:39:51;;;;;;;0.10;0.10;;;6.70;99.90;;;;;;4991901;28;20191;-70
2021/04/17 06:42:20;;;;;;;0.45;0.45;;;7.10;99.90;;;;;;4991536;28;20186;-71
2021/04/17 06:44:47;;;;;;;0.17;0.17;;;7.30;99.90;;;;;;4991573;28;20167;-72
2021/04/17 06:47:17;;;;;;;0.28;0.28;;;7.40;99.90;;;;;;4990257;28;20222;-71
2021/04/17 06:49:44;;;;;;;0.10;0.10;;;7.20;99.90;;;;;;4991753;28;20199;-71
2021/04/17 06:52:12;;;;;;;0.10;0.10;;;7.40;99.90;;;;;;4989903;28;20299;-71
2021/04/17 06:54:39;;;;;;;1.85;0.50;;;7.40;99.90;;;;;;4991469;28;20152;-72
2021/04/17 06:57:06;;;;;;;0.10;0.10;;;7.40;99.90;;;;;;4991362;28;20238;-72
2021/04/17 06:59:33;;;;;;;0.52;0.52;;;7.50;99.90;;;;;;4989836;28;20246;-72
2021/04/17 07:02:00;;;;;;;0.45;0.45;;;7.70;99.90;;;;;;4991188;28;20160;-71
2021/04/17 07:04:27;;;;;;;0.75;0.75;;;7.90;99.90;;;;;;4991406;28;20164;-71
2021/04/17 07:06:54;;;;;;;0.57;0.57;;;8.30;99.90;;;;;;4989950;28;20175;-72
2021/04/17 07:09:22;;;;;;;0.10;0.10;;;8.50;99.90;;;;;;4991078;28;20267;-71
2021/04/17 07:11:49;;;;;;;0.50;0.50;;;8.60;99.90;;;;;;4991193;28;20183;-73
2021/04/17 07:14:18;;;;;;;0.17;0.17;;;8.80;99.90;;;;;;4989929;28;20182;-72
2021/04/17 07:17:04;;;;;;;0.93;0.93;;;8.80;99.90;;;;;;4991142;28;20610;-72
2021/04/17 07:19:57;;;;;;;0.10;0.10;;;9.10;99.90;;;;;;4990807;28;20219;-71
2021/04/17 07:22:25;;;;;;;0.10;0.10;;;9.10;99.90;;;;;;4990942;28;20160;-69
2021/04/17 07:25:18;;;;;;;1.17;0.52;;;9.30;99.90;;;;;;4987379;28;20172;-71
2021/04/17 07:27:52;;;;;;;0.20;0.20;;;9.60;99.90;;;;;;4973884;28;20192;-71
2021/04/17 07:30:18;;;;;;;0.20;0.20;;;9.70;99.90;;;;;;4972821;28;20258;-70
2021/04/17 07:33:11;;;;;;;0.40;0.40;;;10.00;99.90;;;;;;4974995;28;20629;-72
2021/04/17 07:35:53;;;;;;;0.10;0.10;;;9.60;99.90;;;;;;4985659;28;20638;-72
2021/04/17 07:38:27;;;;;;;0.28;0.28;;;9.80;99.90;;;;;;4975692;28;20262;-70
2021/04/17 07:41:07;;;;;;;0.30;0.30;;;9.90;99.90;;;;;;4980281;28;20197;-71
2021/04/17 07:43:54;;;;;;;0.30;0.30;;;10.10;99.90;;;;;;4956582;29;20172;-71
2021/04/17 07:46:30;;;;;;;0.75;0.75;;;10.10;99.90;;;;;;4972794;28;20202;-70
2021/04/17 07:49:18;;;;;;;0.10;0.10;;;10.00;99.90;;;;;;4981660;28;20230;-72
2021/04/17 07:52:16;;;;;;;1.23;1.13;;;10.40;99.90;;;;;;4978287;28;20206;-71
2021/04/17 07:55:04;;;;;;;0.22;0.22;;;10.00;99.90;;;;;;4933601;29;20240;-71
2021/04/17 07:57:35;;;;;;;0.57;0.57;;;10.20;99.90;;;;;;4943832;29;20252;-72
2021/04/17 08:00:03;;;;;;;0.20;0.20;;;10.00;99.90;;;;;;4939122;29;20328;-70
2021/04/17 08:02:31;;;;;;;0.52;0.52;;;10.00;99.90;;;;;;4943604;29;20177;-71
2021/04/17 08:04:59;;;;;;;1.05;1.02;;;10.10;99.90;;;;;;4931105;29;20232;-70
2021/04/17 08:07:27;;;;;;;0.30;0.30;;;10.30;99.90;;;;;;4929954;29;20173;-71
2021/04/17 08:09:57;;;;;;;0.20;0.20;;;10.70;99.90;;;;;;4929808;29;20260;-72
2021/04/17 08:12:24;;;;;;;0.50;0.50;;;10.60;99.90;;;;;;4930094;29;20177;-71
2021/04/17 08:14:51;;;;;;;0.20;0.20;;;10.70;99.90;;;;;;4931854;29;20276;-72
2021/04/17 08:17:18;;;;;;;1.20;1.20;;;11.30;99.90;;;;;;4933031;29;20296;-72
2021/04/17 08:19:45;;;;;;;0.65;0.65;;;11.80;99.90;;;;;;4948510;29;20231;-70
2021/04/17 08:22:11;;;;;;;0.57;0.55;;;11.60;99.90;;;;;;4949015;29;20208;-70
2021/04/17 08:24:38;;;;;;;1.02;0.63;;;12.40;99.90;;;;;;4948709;29;20192;-72
2021/04/17 08:27:05;;;;;;;0.22;0.22;;;13.60;99.90;;;;;;4949182;29;20188;-71
2021/04/17 08:29:51;;;;;;;0.85;0.52;;;13.80;99.90;;;;;;4956607;28;20261;-71
2021/04/17 08:32:29;;;;;;;0.52;0.52;;;14.00;99.90;;;;;;4989388;28;20222;-72
2021/04/17 08:34:58;;;;;;;0.82;0.43;;;13.70;99.90;;;;;;4989395;28;20183;-71
2021/04/17 08:37:24;;;;;;;0.30;0.30;;;12.80;99.90;;;;;;4989447;28;20179;-71
2021/04/17 08:39:54;;;;;;;1.38;1.23;;;13.00;99.90;;;;;;4989392;28;20287;-71
2021/04/17 08:42:39;;;;;;;0.30;0.30;;;13.90;99.90;;;;;;4989656;28;20164;-72
2021/04/17 08:45:13;;;;;;;0.40;0.40;;;15.40;99.90;;;;;;4990095;28;20199;-71
2021/04/17 08:47:47;;;;;;;0.30;0.30;;;16.00;99.90;;;;;;4990128;28;20241;-71
2021/04/17 08:50:32;;;;;;;1.52;0.68;;;15.20;99.90;;;;;;4988557;28;20189;-71
2021/04/17 08:53:02;;;;;;;0.57;0.57;;;15.40;99.90;;;;;;4990440;28;20194;-71
2021/04/17 08:55:43;;;;;;;1.65;1.17;;;16.10;99.90;;;;;;4990470;28;20634;-70
2021/04/17 08:58:19;;;;;;;0.28;0.28;;;17.10;99.90;;;;;;4988486;28;20683;-70
2021/04/17 09:00:51;;;;;;;0.73;0.73;;;17.30;99.90;;;;;;4989823;28;20159;-71
2021/04/17 09:03:47;;;;;;;1.00;1.00;;;16.10;99.90;;;;;;4990128;28;20172;-73
2021/04/17 09:06:25;;;;;;;0.52;0.52;;;14.10;99.90;;;;;;4990238;28;20309;-70
2021/04/17 09:09:20;;;;;;;0.55;0.43;;;12.40;99.90;;;;;;4990353;28;20195;-72
2021/04/17 09:11:48;;;;;;;0.80;0.80;;;11.30;99.90;;;;;;4989734;28;20279;-71
2021/04/17 09:14:26;;;;;;;0.70;0.70;;;10.90;99.90;;;;;;4989759;28;20159;-71
2021/04/17 09:16:53;;;;;;;0.68;0.68;;;10.80;99.90;;;;;;4989779;28;20163;-71
2021/04/17 09:19:38;;;;;;;1.75;0.80;;;11.50;99.90;;;;;;4988336;28;20341;-72
2021/04/17 09:22:22;;;;;;;0.20;0.20;;;11.90;99.90;;;;;;4988878;28;20221;-71
2021/04/17 09:24:48;;;;;;;0.75;0.75;;;11.90;99.90;;;;;;4987049;28;20228;-72
2021/04/17 09:27:45;;;;;;;0.25;0.25;;;11.90;99.90;;;;;;4988810;28;20356;-71
2021/04/17 09:30:19;;;;;;;0.60;0.60;;;12.40;99.90;;;;;;4989526;28;20191;-71
2021/04/17 09:32:47;;;;;;;0.82;0.82;;;12.50;99.90;;;;;;4988839;28;20191;-72
2021/04/17 09:35:33;;;;;;;0.60;0.60;;;12.90;99.90;;;;;;4987022;28;20175;-72
2021/04/17 09:38:15;;;;;;;0.10;0.10;;;13.50;99.90;;;;;;4988132;28;20202;-72
2021/04/17 09:40:45;;;;;;;0.35;0.35;;;13.90;99.90;;;;;;4988792;28;20198;-73
2021/04/17 09:43:25;;;;;;;0.20;0.20;;;13.90;99.90;;;;;;4988943;28;20537;-72
2021/04/17 09:45:52;;;;;;;0.55;0.55;;;14.90;99.90;;;;;;4988726;28;20611;-73
2021/04/17 09:48:21;;;;;;;0.22;0.22;;;14.80;99.90;;;;;;4986894;28;20230;-73
2021/04/17 09:50:51;;;;;;;0.60;0.60;;;15.40;99.90;;;;;;4988750;28;20191;-75
2021/04/17 09:53:28;;;;;;;0.50;0.50;;;15.20;99.90;;;;;;4987395;28;20175;-74
2021/04/17 09:55:56;;;;;;;0.57;0.55;;;15.00;99.90;;;;;;4988638;28;20160;-73
2021/04/17 09:58:31;;;;;;;1.20;1.10;;;14.90;99.90;;;;;;4988677;28;20199;-73
2021/04/17 10:01:09;;;;;;;0.63;0.63;;;15.50;99.90;;;;;;4988659;28;20174;-73
2021/04/17 10:03:38;;;;;;;0.55;0.55;;;15.70;99.90;;;;;;4987233;28;20180;-72
2021/04/17 10:06:22;;;;;;;0.32;0.32;;;17.30;99.90;;;;;;4987393;28;20638;-72
2021/04/17 10:08:48;;;;;;;2.85;0.93;;;18.20;99.40;;;;;;4989778;28;20202;-74
2021/04/17 10:11:28;;;;;;;0.85;0.85;;;19.00;98.60;;;;;;4992244;28;20343;-74
2021/04/17 10:13:55;;;;;;;0.82;0.82;;;19.20;98.70;;;;;;4992059;28;20187;-72
2021/04/17 10:16:24;;;;;;;1.33;0.82;;;20.40;97.00;;;;;;4992069;28;20167;-72
2021/04/17 10:18:51;;;;;;;0.35;0.35;;;20.60;95.70;;;;;;4991840;28;20206;-71
2021/04/17 10:21:23;;;;;;;1.17;0.68;;;21.90;94.20;;;;;;4991954;28;20163;-72
2021/04/17 10:24:22;;;;;;;0.60;0.60;;;22.40;92.90;;;;;;4991933;28;20156;-73
2021/04/17 10:26:53;;;;;;;0.93;0.65;;;21.10;93.10;;;;;;4989738;28;20202;-73
2021/04/17 10:29:21;;;;;;;1.05;0.90;;;20.70;94.20;;;;;;4989825;28;20215;-72
2021/04/17 10:32:01;;;;;;;0.57;0.35;;;21.20;93.70;;;;;;4989764;28;20207;-72
2021/04/17 10:34:27;;;;;;;2.03;1.25;;;21.80;91.70;;;;;;4973775;28;20599;-73
2021/04/17 10:37:02;;;;;;;2.10;1.00;;;21.40;92.00;;;;;;4989628;28;20195;-73
2021/04/17 10:39:29;;;;;;;0.90;0.90;;;20.90;93.50;;;;;;4989755;28;20170;-73
2021/04/17 10:42:00;;;;;;;1.40;1.17;;;20.90;92.30;;;;;;4989767;28;20183;-72
2021/04/17 10:44:26;;;;;;;0.68;0.68;;;21.10;92.30;;;;;;4989664;28;20228;-72
2021/04/17 10:46:52;;;;;;;4.90;0.93;;;20.40;93.40;;;;;;4989573;28;20234;-73
2021/04/17 10:49:35;;;;;;;0.75;0.75;;;20.40;93.60;;;;;;4987065;28;20620;-72
2021/04/17 10:52:06;;;;;;;0.60;0.60;;;20.70;92.60;;;;;;4972290;28;20392;-72
2021/04/17 10:54:33;;;;;;;0.82;0.82;;;19.10;92.90;;;;;;4988948;28;20183;-72
2021/04/17 10:57:08;;;;;;;0.73;0.73;;;16.00;95.80;;;;;;4987719;28;20334;-72
2021/04/17 10:59:56;;;;;;;0.77;0.75;;;16.50;97.90;;;;;;4989210;28;20225;-72
2021/04/17 11:02:24;;;;;;;1.27;0.88;;;17.40;95.40;;;;;;4983255;28;20208;-72
2021/04/17 11:04:50;;;;;;;0.40;0.40;;;17.60;96.40;;;;;;4979471;28;20172;-71
2021/04/17 11:07:16;;;;;;;0.43;0.32;;;17.20;95.20;;;;;;4980092;28;20191;-72
2021/04/17 11:09:48;;;;;;;0.70;0.70;;;16.30;96.90;;;;;;4980974;28;20172;-72
2021/04/17 11:12:29;;;;;;;0.35;0.35;;;15.80;97.70;;;;;;4978593;28;20199;-73
2021/04/17 11:15:23;;;;;;;0.60;0.60;;;15.50;98.00;;;;;;4971734;29;20162;-73
2021/04/17 11:18:10;;;;;;;0.50;0.43;;;16.80;97.60;;;;;;4971675;28;20260;-73
2021/04/17 11:20:48;;;;;;;0.38;0.38;;;17.20;98.20;;;;;;4970245;28;20282;-72
2021/04/17 11:23:37;;;;;;;0.82;0.82;;;17.90;95.30;;;;;;4971545;29;20160;-71
2021/04/17 11:26:19;;;;;;;0.85;0.85;;;18.30;95.80;;;;;;4986399;28;20254;-71
2021/04/17 11:28:51;;;;;;;0.60;0.60;;;20.00;96.00;;;;;;4971465;29;20203;-71
2021/04/17 11:31:23;;;;;;;0.68;0.65;;;19.90;93.80;;;;;;4971475;29;20195;-72
2021/04/17 11:33:51;;;;;;;17.45;1.83;;;19.30;94.10;;;;;;4971514;29;20148;-72
2021/04/17 11:36:19;;;;;;;1.23;0.90;;;17.80;95.90;;;;;;4971430;29;20160;-72
2021/04/17 11:38:45;;;;;;;0.70;0.68;;;17.70;95.90;;;;;;4971355;29;20250;-71
2021/04/17 11:41:11;;;;;;;0.88;0.88;;;18.30;95.70;;;;;;4971161;29;20164;-71
2021/04/17 11:43:37;;;;;;;1.23;0.98;;;19.30;94.30;;;;;;4971175;29;20167;-72
2021/04/17 11:46:03;;;;;;;1.85;0.85;;;19.50;94.10;;;;;;4971359;29;20164;-72
2021/04/17 11:48:29;;;;;;;0.85;0.77;;;19.80;93.70;;;;;;4971235;28;20234;-71
2021/04/17 11:50:56;;;;;;;0.30;0.30;;;20.70;94.50;;;;;;4971065;28;20617;-71
2021/04/17 11:53:22;;;;;;;0.50;0.50;;;20.90;94.80;;;;;;4970796;29;20194;-71
2021/04/17 11:55:50;;;;;;;0.55;0.50;;;19.80;92.80;;;;;;4970990;29;20235;-72
2021/04/17 11:58:17;;;;;;;0.40;0.40;;;18.50;94.50;;;;;;4985485;28;20199;-71
2021/04/17 12:00:43;;;;;;;0.22;0.22;;;17.60;95.80;;;;;;4970641;29;20180;-71
2021/04/17 12:03:08;;;;;;;26.20;1.10;;;17.10;95.90;;;;;;4970683;29;20302;-71
2021/04/17 12:05:34;;;;;;;0.68;0.68;;;16.60;96.70;;;;;;4970605;28;20179;-71
2021/04/17 12:08:00;;;;;;;0.30;0.30;;;16.70;96.00;;;;;;4970423;29;20612;-71
2021/04/17 12:10:26;;;;;;;1.85;1.75;;;17.40;96.00;;;;;;4985219;28;20200;-72
2021/04/17 12:12:53;;;;;;;0.75;0.68;;;16.80;95.60;;;;;;4970507;29;20244;-74
2021/04/17 12:15:19;;;;;;;0.30;0.20;;;16.90;95.80;;;;;;4970444;29;20203;-72
2021/04/17 12:17:47;;;;;;;1.08;0.98;;;17.00;97.40;;;;;;4970439;29;20184;-72
2021/04/17 12:20:13;;;;;;;0.45;0.38;;;17.30;96.70;;;;;;4970118;29;20377;-73
2021/04/17 12:22:39;;;;;;;0.68;0.68;;;17.40;95.40;;;;;;4970503;29;20600;-73
2021/04/17 12:25:09;;;;;;;1.50;1.13;;;16.20;97.00;;;;;;4970373;29;20172;-71
2021/04/17 12:27:36;;;;;;;0.20;0.20;;;15.90;97.50;;;;;;4970004;29;20195;-71
2021/04/17 12:30:08;;;;;;;0.20;0.20;;;15.80;97.30;;;;;;4970433;28;20171;-71
2021/04/17 12:32:34;;;;;;;0.57;0.57;;;15.40;97.10;;;;;;4970090;28;20164;-71
2021/04/17 12:35:00;;;;;;;0.85;0.85;;;14.80;97.80;;;;;;4984991;28;20561;-71
2021/04/17 12:37:26;;;;;;;0.98;0.90;;;14.70;98.40;;;;;;4969987;28;20251;-72
2021/04/17 12:39:52;;;;;;;1.25;0.70;;;14.70;98.60;;;;;;4984985;28;20176;-73
2021/04/17 12:42:18;;;;;;;0.63;0.40;;;14.60;99.20;;;;;;4984669;28;20168;-73
2021/04/17 12:44:44;;;;;;;1.25;1.23;;;14.80;98.50;;;;;;4969990;29;20164;-74
2021/04/17 12:47:10;;;;;;;0.70;0.70;;;14.90;98.90;;;;;;4984610;28;20195;-73
2021/04/17 12:49:36;;;;;;;2.72;1.85;;;15.10;98.80;;;;;;4969860;29;20160;-74
2021/04/17 12:52:03;;;;;;;0.82;0.82;;;15.00;99.40;;;;;;4969795;29;20234;-72
2021/04/17 12:54:30;;;;;;;0.38;0.10;;;14.70;98.40;;;;;;4969976;29;20172;-72
2021/04/17 12:56:56;;;;;;;0.30;0.30;;;14.70;99.10;;;;;;4969803;29;20238;-72
2021/04/17 12:59:22;;;;;;;1.00;1.00;;;14.80;99.90;;;;;;4970020;29;20232;-72
2021/04/17 13:01:49;;;;;;;0.25;0.25;;;15.20;99.30;;;;;;4969852;29;20169;-71
2021/04/17 13:04:15;;;;;;;0.10;0.10;;;15.00;98.90;;;;;;4969994;29;20192;-72
2021/04/17 13:06:40;;;;;;;1.38;0.43;;;14.50;99.30;;;;;;4969610;29;20187;-71